sensor_id;sensor_type;location;lat;lon;timestamp;temperature;humidity
20732;DHT22;10527;52.124;5.196;2023-09-19T00:00:47;16.10;99.90
20732;DHT22;10527;52.124;5.196;2023-09-19T00:03:20;16.10;99.90
20732;DHT22;10527;52.124;5.196;2023-09-19T00:05:47;16.00;99.90
20732;DHT22;10527;52.124;5.196;2023-09-19T00:08:14;16.10;99.90
20732;DHT22;10527;52.124;5.196;2023-09-19T00:10:41;16.20;99.90
20732;DHT22;10527;52.124;5.196;2023-09-19T00:13:09;16.20;99.90
20732;DHT22;10527;52.124;5.196;2023-09-19T00:15:43;16.10;99.90
20732;DHT22;10527;52.124;5.196;2023-09-19T00:18:20;16.10;99.90
20732;DHT22;10527;52.124;5.196;2023-09-19T00:20:50;16.00;99.90
20732;DHT22;10527;52.124;5.196;2023-09-19T00:23:19;15.90;99.90
20732;DHT22;10527;52.124;5.196;2023-09-19T00:25:47;15.90;99.90
20732;DHT22;10527;52.124;5.196;2023-09-19T00:28:14;15.80;99.90
20732;DHT22;10527;52.124;5.196;2023-09-19T00:30:43;15.70;99.90
20732;DHT22;10527;52.124;5.196;2023-09-19T00:33:11;15.80;99.90
20732;DHT22;10527;52.124;5.196;2023-09-19T00:35:50;15.90;99.90
20732;DHT22;10527;52.124;5.196;2023-09-19T00:38:19;15.90;99.90
20732;DHT22;10527;52.124;5.196;2023-09-19T00:40:55;15.90;99.90
20732;DHT22;10527;52.124;5.196;2023-09-19T00:43:26;15.90;99.90
20732;DHT22;10527;52.124;5.196;2023-09-19T00:45:57;15.90;99.90
20732;DHT22;10527;52.124;5.196;2023-09-19T00:48:25;15.90;99.90
20732;DHT22;10527;52.124;5.196;2023-09-19T00:51:03;15.90;99.90
20732;DHT22;10527;52.124;5.196;2023-09-19T00:53:31;15.70;99.90
20732;DHT22;10527;52.124;5.196;2023-09-19T00:56:01;15.70;99.90
20732;DHT22;10527;52.124;5.196;2023-09-19T00:58:31;15.70;99.90
20732;DHT22;10527;52.124;5.196;2023-09-19T01:01:01;15.70;99.90
20732;DHT22;10527;52.124;5.196;2023-09-19T01:03:29;15.70;99.90
20732;DHT22;10527;52.124;5.196;2023-09-19T01:05:56;15.80;99.90
20732;DHT22;10527;52.124;5.196;2023-09-19T01:08:23;15.80;99.90
20732;DHT22;10527;52.124;5.196;2023-09-19T01:11:21;15.80;99.90
20732;DHT22;10527;52.124;5.196;2023-09-19T01:17:05;15.80;99.90
20732;DHT22;10527;52.124;5.196;2023-09-19T01:20:08;15.70;99.90
20732;DHT22;10527;52.124;5.196;2023-09-19T01:29:01;15.80;99.90
20732;DHT22;10527;52.124;5.196;2023-09-19T01:32:03;15.90;99.90
20732;DHT22;10527;52.124;5.196;2023-09-19T01:34:46;15.90;99.90
20732;DHT22;10527;52.124;5.196;2023-09-19T01:37:18;15.90;99.90
20732;DHT22;10527;52.124;5.196;2023-09-19T01:39:59;15.80;99.90
20732;DHT22;10527;52.124;5.196;2023-09-19T01:48:35;15.60;99.90
20732;DHT22;10527;52.124;5.196;2023-09-19T01:51:07;15.60;99.90
20732;DHT22;10527;52.124;5.196;2023-09-19T01:54:00;15.50;99.90
20732;DHT22;10527;52.124;5.196;2023-09-19T01:56:48;15.50;99.90
20732;DHT22;10527;52.124;5.196;2023-09-19T01:59:24;15.50;99.90
20732;DHT22;10527;52.124;5.196;2023-09-19T02:01:55;15.50;99.90
20732;DHT22;10527;52.124;5.196;2023-09-19T02:04:24;15.40;99.90
20732;DHT22;10527;52.124;5.196;2023-09-19T02:06:51;15.30;99.90
20732;DHT22;10527;52.124;5.196;2023-09-19T02:09:18;15.30;99.90
20732;DHT22;10527;52.124;5.196;2023-09-19T02:11:45;15.40;99.90
20732;DHT22;10527;52.124;5.196;2023-09-19T02:14:13;15.40;99.90
20732;DHT22;10527;52.124;5.196;2023-09-19T02:16:40;15.30;99.90
20732;DHT22;10527;52.124;5.196;2023-09-19T02:19:08;15.20;99.90
20732;DHT22;10527;52.124;5.196;2023-09-19T02:21:35;15.30;99.90
20732;DHT22;10527;52.124;5.196;2023-09-19T02:24:03;15.40;99.90
20732;DHT22;10527;52.124;5.196;2023-09-19T02:26:30;15.30;99.90
20732;DHT22;10527;52.124;5.196;2023-09-19T02:28:57;15.20;99.90
20732;DHT22;10527;52.124;5.196;2023-09-19T02:31:24;15.20;99.90
20732;DHT22;10527;52.124;5.196;2023-09-19T02:33:51;15.20;99.90
20732;DHT22;10527;52.124;5.196;2023-09-19T02:36:18;15.20;99.90
20732;DHT22;10527;52.124;5.196;2023-09-19T02:38:45;15.20;99.90
20732;DHT22;10527;52.124;5.196;2023-09-19T02:41:12;15.20;99.90
20732;DHT22;10527;52.124;5.196;2023-09-19T02:43:38;15.20;99.90
20732;DHT22;10527;52.124;5.196;2023-09-19T02:46:06;15.20;99.90
20732;DHT22;10527;52.124;5.196;2023-09-19T02:48:33;15.10;99.90
20732;DHT22;10527;52.124;5.196;2023-09-19T02:51:02;15.20;99.90
20732;DHT22;10527;52.124;5.196;2023-09-19T02:53:32;15.10;99.90
20732;DHT22;10527;52.124;5.196;2023-09-19T02:55:59;15.10;99.90
20732;DHT22;10527;52.124;5.196;2023-09-19T02:58:26;15.10;99.90
20732;DHT22;10527;52.124;5.196;2023-09-19T03:00:54;15.10;99.90
20732;DHT22;10527;52.124;5.196;2023-09-19T03:03:22;15.10;99.90
20732;DHT22;10527;52.124;5.196;2023-09-19T03:05:50;15.10;99.90
20732;DHT22;10527;52.124;5.196;2023-09-19T03:08:20;15.10;99.90
20732;DHT22;10527;52.124;5.196;2023-09-19T03:10:48;15.10;99.90
20732;DHT22;10527;52.124;5.196;2023-09-19T03:13:15;15.00;99.90
20732;DHT22;10527;52.124;5.196;2023-09-19T03:15:43;15.00;99.90
20732;DHT22;10527;52.124;5.196;2023-09-19T03:18:21;14.90;99.90
20732;DHT22;10527;52.124;5.196;2023-09-19T03:20:56;14.90;99.90
20732;DHT22;10527;52.124;5.196;2023-09-19T03:23:23;14.90;99.90
20732;DHT22;10527;52.124;5.196;2023-09-19T03:25:50;14.90;99.90
20732;DHT22;10527;52.124;5.196;2023-09-19T03:28:17;14.80;99.90
20732;DHT22;10527;52.124;5.196;2023-09-19T03:30:44;14.80;99.90
20732;DHT22;10527;52.124;5.196;2023-09-19T03:33:12;14.80;99.90
20732;DHT22;10527;52.124;5.196;2023-09-19T03:35:39;14.80;99.90
20732;DHT22;10527;52.124;5.196;2023-09-19T03:38:06;14.80;99.90
20732;DHT22;10527;52.124;5.196;2023-09-19T03:40:33;14.70;99.90
20732;DHT22;10527;52.124;5.196;2023-09-19T03:43:06;14.80;99.90
20732;DHT22;10527;52.124;5.196;2023-09-19T03:45:33;14.80;99.90
20732;DHT22;10527;52.124;5.196;2023-09-19T03:48:08;14.80;99.90
20732;DHT22;10527;52.124;5.196;2023-09-19T03:50:36;14.70;99.90
20732;DHT22;10527;52.124;5.196;2023-09-19T03:53:09;14.60;99.90
20732;DHT22;10527;52.124;5.196;2023-09-19T03:55:36;14.60;99.90
20732;DHT22;10527;52.124;5.196;2023-09-19T03:58:05;14.50;99.90
20732;DHT22;10527;52.124;5.196;2023-09-19T04:00:32;14.50;99.90
20732;DHT22;10527;52.124;5.196;2023-09-19T04:03:06;14.60;99.90
20732;DHT22;10527;52.124;5.196;2023-09-19T04:05:35;14.50;99.90
20732;DHT22;10527;52.124;5.196;2023-09-19T04:08:02;14.50;99.90
20732;DHT22;10527;52.124;5.196;2023-09-19T04:10:29;14.60;99.90
20732;DHT22;10527;52.124;5.196;2023-09-19T04:12:56;14.60;99.90
20732;DHT22;10527;52.124;5.196;2023-09-19T04:15:24;14.50;99.90
20732;DHT22;10527;52.124;5.196;2023-09-19T04:17:52;14.50;99.90
20732;DHT22;10527;52.124;5.196;2023-09-19T04:20:19;14.50;99.90
20732;DHT22;10527;52.124;5.196;2023-09-19T04:22:46;14.50;99.90
20732;DHT22;10527;52.124;5.196;2023-09-19T04:25:14;14.50;99.90
20732;DHT22;10527;52.124;5.196;2023-09-19T04:27:41;14.50;99.90
20732;DHT22;10527;52.124;5.196;2023-09-19T04:30:08;14.50;99.90
20732;DHT22;10527;52.124;5.196;2023-09-19T04:32:38;14.40;99.90
20732;DHT22;10527;52.124;5.196;2023-09-19T04:35:09;14.40;99.90
20732;DHT22;10527;52.124;5.196;2023-09-19T04:37:41;14.50;99.90
20732;DHT22;10527;52.124;5.196;2023-09-19T04:40:11;14.40;99.90
20732;DHT22;10527;52.124;5.196;2023-09-19T04:42:57;14.40;99.90
20732;DHT22;10527;52.124;5.196;2023-09-19T04:45:25;14.40;99.90
20732;DHT22;10527;52.124;5.196;2023-09-19T04:47:53;14.50;99.90
20732;DHT22;10527;52.124;5.196;2023-09-19T04:50:23;14.40;99.90
20732;DHT22;10527;52.124;5.196;2023-09-19T04:52:54;14.50;99.90
20732;DHT22;10527;52.124;5.196;2023-09-19T04:55:21;14.50;99.90
20732;DHT22;10527;52.124;5.196;2023-09-19T04:57:51;14.50;99.90
20732;DHT22;10527;52.124;5.196;2023-09-19T05:00:20;14.50;99.90
20732;DHT22;10527;52.124;5.196;2023-09-19T05:02:51;14.50;99.90
20732;DHT22;10527;52.124;5.196;2023-09-19T05:05:19;14.50;99.90
20732;DHT22;10527;52.124;5.196;2023-09-19T05:07:46;14.50;99.90
20732;DHT22;10527;52.124;5.196;2023-09-19T05:10:15;14.50;99.90
20732;DHT22;10527;52.124;5.196;2023-09-19T05:12:47;14.50;99.90
20732;DHT22;10527;52.124;5.196;2023-09-19T05:15:20;14.50;99.90
20732;DHT22;10527;52.124;5.196;2023-09-19T05:17:49;14.50;99.90
20732;DHT22;10527;52.124;5.196;2023-09-19T05:20:22;14.40;99.90
20732;DHT22;10527;52.124;5.196;2023-09-19T05:23:01;14.40;99.90
20732;DHT22;10527;52.124;5.196;2023-09-19T05:25:40;14.40;99.90
20732;DHT22;10527;52.124;5.196;2023-09-19T05:28:09;14.40;99.90
20732;DHT22;10527;52.124;5.196;2023-09-19T05:30:42;14.40;99.90
20732;DHT22;10527;52.124;5.196;2023-09-19T05:33:13;14.40;99.90
20732;DHT22;10527;52.124;5.196;2023-09-19T05:35:43;14.40;99.90
20732;DHT22;10527;52.124;5.196;2023-09-19T05:38:10;14.40;99.90
20732;DHT22;10527;52.124;5.196;2023-09-19T05:40:40;14.40;99.90
20732;DHT22;10527;52.124;5.196;2023-09-19T05:43:15;14.40;99.90
20732;DHT22;10527;52.124;5.196;2023-09-19T05:45:43;14.40;99.90
20732;DHT22;10527;52.124;5.196;2023-09-19T05:48:11;14.50;99.90
20732;DHT22;10527;52.124;5.196;2023-09-19T05:50:43;14.50;99.90
20732;DHT22;10527;52.124;5.196;2023-09-19T05:53:13;14.50;99.90
20732;DHT22;10527;52.124;5.196;2023-09-19T05:55:41;14.70;99.90
20732;DHT22;10527;52.124;5.196;2023-09-19T05:58:08;14.60;99.90
20732;DHT22;10527;52.124;5.196;2023-09-19T06:00:38;14.70;99.90
20732;DHT22;10527;52.124;5.196;2023-09-19T06:03:08;14.70;99.90
20732;DHT22;10527;52.124;5.196;2023-09-19T06:05:35;14.80;99.90
20732;DHT22;10527;52.124;5.196;2023-09-19T06:08:01;14.70;99.90
20732;DHT22;10527;52.124;5.196;2023-09-19T06:10:35;14.70;99.90
20732;DHT22;10527;52.124;5.196;2023-09-19T06:13:04;14.80;99.90
20732;DHT22;10527;52.124;5.196;2023-09-19T06:15:32;14.80;99.90
20732;DHT22;10527;52.124;5.196;2023-09-19T06:18:00;14.70;99.90
20732;DHT22;10527;52.124;5.196;2023-09-19T06:20:28;14.80;99.90
20732;DHT22;10527;52.124;5.196;2023-09-19T06:22:56;14.80;99.90
20732;DHT22;10527;52.124;5.196;2023-09-19T06:25:24;14.90;99.90
20732;DHT22;10527;52.124;5.196;2023-09-19T06:27:52;14.80;99.90
20732;DHT22;10527;52.124;5.196;2023-09-19T06:30:21;14.80;99.90
20732;DHT22;10527;52.124;5.196;2023-09-19T06:32:59;14.80;99.90
20732;DHT22;10527;52.124;5.196;2023-09-19T06:35:28;14.80;99.90
20732;DHT22;10527;52.124;5.196;2023-09-19T06:38:02;14.90;99.90
20732;DHT22;10527;52.124;5.196;2023-09-19T06:40:30;14.90;99.90
20732;DHT22;10527;52.124;5.196;2023-09-19T06:42:58;14.90;99.90
20732;DHT22;10527;52.124;5.196;2023-09-19T06:45:25;14.90;99.90
20732;DHT22;10527;52.124;5.196;2023-09-19T06:47:54;15.00;99.90
20732;DHT22;10527;52.124;5.196;2023-09-19T06:50:25;15.00;99.90
20732;DHT22;10527;52.124;5.196;2023-09-19T06:52:53;15.00;99.90
20732;DHT22;10527;52.124;5.196;2023-09-19T06:55:23;15.00;99.90
20732;DHT22;10527;52.124;5.196;2023-09-19T06:57:52;15.00;99.90
20732;DHT22;10527;52.124;5.196;2023-09-19T07:00:21;15.00;99.90
20732;DHT22;10527;52.124;5.196;2023-09-19T07:05:23;15.10;99.90
20732;DHT22;10527;52.124;5.196;2023-09-19T07:07:50;15.10;99.90
20732;DHT22;10527;52.124;5.196;2023-09-19T07:10:17;15.10;99.90
20732;DHT22;10527;52.124;5.196;2023-09-19T07:12:45;15.20;99.90
20732;DHT22;10527;52.124;5.196;2023-09-19T07:15:12;15.20;99.90
20732;DHT22;10527;52.124;5.196;2023-09-19T07:17:40;15.30;99.90
20732;DHT22;10527;52.124;5.196;2023-09-19T07:20:07;15.40;99.90
20732;DHT22;10527;52.124;5.196;2023-09-19T07:22:34;15.40;99.90
20732;DHT22;10527;52.124;5.196;2023-09-19T07:25:02;15.40;99.90
20732;DHT22;10527;52.124;5.196;2023-09-19T07:27:30;15.40;99.90
20732;DHT22;10527;52.124;5.196;2023-09-19T07:29:56;15.40;99.90
20732;DHT22;10527;52.124;5.196;2023-09-19T07:32:23;15.50;99.90
20732;DHT22;10527;52.124;5.196;2023-09-19T07:34:51;15.50;99.90
20732;DHT22;10527;52.124;5.196;2023-09-19T07:37:18;15.50;99.90
20732;DHT22;10527;52.124;5.196;2023-09-19T07:39:45;15.60;99.90
20732;DHT22;10527;52.124;5.196;2023-09-19T07:42:12;15.60;99.90
20732;DHT22;10527;52.124;5.196;2023-09-19T07:44:44;15.60;99.90
20732;DHT22;10527;52.124;5.196;2023-09-19T07:47:14;15.70;99.90
20732;DHT22;10527;52.124;5.196;2023-09-19T07:49:41;15.60;99.90
20732;DHT22;10527;52.124;5.196;2023-09-19T07:52:09;15.80;99.90
20732;DHT22;10527;52.124;5.196;2023-09-19T07:54:39;15.70;99.90
20732;DHT22;10527;52.124;5.196;2023-09-19T07:57:08;15.70;99.90
20732;DHT22;10527;52.124;5.196;2023-09-19T07:59:35;15.80;99.90
20732;DHT22;10527;52.124;5.196;2023-09-19T08:02:03;15.80;99.90
20732;DHT22;10527;52.124;5.196;2023-09-19T08:04:31;15.90;99.90
20732;DHT22;10527;52.124;5.196;2023-09-19T08:07:01;16.00;99.90
20732;DHT22;10527;52.124;5.196;2023-09-19T08:09:30;16.00;99.90
20732;DHT22;10527;52.124;5.196;2023-09-19T08:11:59;16.10;99.90
20732;DHT22;10527;52.124;5.196;2023-09-19T08:14:32;16.00;99.90
20732;DHT22;10527;52.124;5.196;2023-09-19T08:16:59;16.00;99.90
20732;DHT22;10527;52.124;5.196;2023-09-19T08:19:27;16.10;99.90
20732;DHT22;10527;52.124;5.196;2023-09-19T08:21:56;16.10;99.90
20732;DHT22;10527;52.124;5.196;2023-09-19T08:24:29;16.10;99.90
20732;DHT22;10527;52.124;5.196;2023-09-19T08:26:57;16.30;99.90
20732;DHT22;10527;52.124;5.196;2023-09-19T08:29:25;16.40;99.90
20732;DHT22;10527;52.124;5.196;2023-09-19T08:31:55;16.60;99.90
20732;DHT22;10527;52.124;5.196;2023-09-19T08:34:24;16.70;99.90
20732;DHT22;10527;52.124;5.196;2023-09-19T08:36:54;16.70;99.90
20732;DHT22;10527;52.124;5.196;2023-09-19T08:39:25;16.80;99.90
20732;DHT22;10527;52.124;5.196;2023-09-19T08:41:59;16.80;99.90
20732;DHT22;10527;52.124;5.196;2023-09-19T08:44:28;16.80;99.90
20732;DHT22;10527;52.124;5.196;2023-09-19T08:47:10;16.80;99.90
20732;DHT22;10527;52.124;5.196;2023-09-19T08:50:01;16.90;99.90
20732;DHT22;10527;52.124;5.196;2023-09-19T08:52:42;17.00;99.90
20732;DHT22;10527;52.124;5.196;2023-09-19T08:55:14;16.90;99.90
20732;DHT22;10527;52.124;5.196;2023-09-19T08:57:49;16.90;99.90
20732;DHT22;10527;52.124;5.196;2023-09-19T09:00:28;17.00;99.90
20732;DHT22;10527;52.124;5.196;2023-09-19T09:02:57;17.10;99.90
20732;DHT22;10527;52.124;5.196;2023-09-19T09:05:25;17.10;99.90
20732;DHT22;10527;52.124;5.196;2023-09-19T09:07:54;17.30;99.90
20732;DHT22;10527;52.124;5.196;2023-09-19T09:10:23;17.30;99.90
20732;DHT22;10527;52.124;5.196;2023-09-19T09:12:54;17.60;99.90
20732;DHT22;10527;52.124;5.196;2023-09-19T09:15:24;17.80;99.90
20732;DHT22;10527;52.124;5.196;2023-09-19T09:17:51;17.90;99.90
20732;DHT22;10527;52.124;5.196;2023-09-19T09:20:22;17.80;99.90
20732;DHT22;10527;52.124;5.196;2023-09-19T09:22:56;17.70;99.90
20732;DHT22;10527;52.124;5.196;2023-09-19T09:25:53;17.70;99.90
20732;DHT22;10527;52.124;5.196;2023-09-19T09:28:30;17.70;99.90
20732;DHT22;10527;52.124;5.196;2023-09-19T09:30:58;17.70;99.90
20732;DHT22;10527;52.124;5.196;2023-09-19T09:33:25;17.80;99.90
20732;DHT22;10527;52.124;5.196;2023-09-19T09:38:28;17.80;99.90
20732;DHT22;10527;52.124;5.196;2023-09-19T09:41:10;17.80;99.90
20732;DHT22;10527;52.124;5.196;2023-09-19T09:43:42;18.00;99.90
20732;DHT22;10527;52.124;5.196;2023-09-19T09:46:19;18.10;99.90
20732;DHT22;10527;52.124;5.196;2023-09-19T09:49:01;18.10;99.90
20732;DHT22;10527;52.124;5.196;2023-09-19T09:52:05;18.10;99.90
20732;DHT22;10527;52.124;5.196;2023-09-19T09:54:38;18.10;99.90
20732;DHT22;10527;52.124;5.196;2023-09-19T09:57:25;17.90;99.90
20732;DHT22;10527;52.124;5.196;2023-09-19T09:59:54;17.90;99.90
20732;DHT22;10527;52.124;5.196;2023-09-19T10:02:29;18.00;99.90
20732;DHT22;10527;52.124;5.196;2023-09-19T10:05:11;18.30;99.90
20732;DHT22;10527;52.124;5.196;2023-09-19T10:07:51;18.10;99.90
20732;DHT22;10527;52.124;5.196;2023-09-19T10:10:36;18.00;99.90
20732;DHT22;10527;52.124;5.196;2023-09-19T10:13:14;18.00;99.90
20732;DHT22;10527;52.124;5.196;2023-09-19T10:15:49;18.00;99.90
20732;DHT22;10527;52.124;5.196;2023-09-19T10:18:23;18.10;99.90
20732;DHT22;10527;52.124;5.196;2023-09-19T10:20:52;18.20;99.90
20732;DHT22;10527;52.124;5.196;2023-09-19T10:23:20;18.30;99.90
20732;DHT22;10527;52.124;5.196;2023-09-19T10:25:50;18.60;99.90
20732;DHT22;10527;52.124;5.196;2023-09-19T10:28:20;18.70;99.90
20732;DHT22;10527;52.124;5.196;2023-09-19T10:30:52;18.80;99.90
20732;DHT22;10527;52.124;5.196;2023-09-19T10:33:22;18.90;99.90
20732;DHT22;10527;52.124;5.196;2023-09-19T10:35:53;18.90;99.90
20732;DHT22;10527;52.124;5.196;2023-09-19T10:38:24;19.10;99.90
20732;DHT22;10527;52.124;5.196;2023-09-19T10:40:54;19.30;99.90
20732;DHT22;10527;52.124;5.196;2023-09-19T10:43:32;19.30;99.90
20732;DHT22;10527;52.124;5.196;2023-09-19T10:46:07;19.20;99.90
20732;DHT22;10527;52.124;5.196;2023-09-19T10:48:40;19.20;99.90
20732;DHT22;10527;52.124;5.196;2023-09-19T10:51:15;19.10;99.90
20732;DHT22;10527;52.124;5.196;2023-09-19T10:54:01;19.10;99.90
20732;DHT22;10527;52.124;5.196;2023-09-19T10:56:49;19.10;99.90
20732;DHT22;10527;52.124;5.196;2023-09-19T10:59:18;19.40;99.90
20732;DHT22;10527;52.124;5.196;2023-09-19T11:01:49;19.30;99.90
20732;DHT22;10527;52.124;5.196;2023-09-19T11:04:31;19.20;99.90
20732;DHT22;10527;52.124;5.196;2023-09-19T11:07:27;19.40;99.90
20732;DHT22;10527;52.124;5.196;2023-09-19T11:09:56;19.40;99.90
20732;DHT22;10527;52.124;5.196;2023-09-19T11:14:59;19.30;99.90
20732;DHT22;10527;52.124;5.196;2023-09-19T11:17:36;19.50;99.90
20732;DHT22;10527;52.124;5.196;2023-09-19T11:30:49;19.00;99.90
20732;DHT22;10527;52.124;5.196;2023-09-19T11:33:37;19.10;99.90
20732;DHT22;10527;52.124;5.196;2023-09-19T11:36:13;19.00;99.90
20732;DHT22;10527;52.124;5.196;2023-09-19T11:43:53;18.90;99.90
20732;DHT22;10527;52.124;5.196;2023-09-19T11:46:33;18.90;99.90
20732;DHT22;10527;52.124;5.196;2023-09-19T11:49:08;19.00;99.90
20732;DHT22;10527;52.124;5.196;2023-09-19T11:51:41;19.10;99.90
20732;DHT22;10527;52.124;5.196;2023-09-19T11:54:11;19.10;99.90
20732;DHT22;10527;52.124;5.196;2023-09-19T11:56:46;19.30;99.90
20732;DHT22;10527;52.124;5.196;2023-09-19T11:59:21;19.30;99.90
20732;DHT22;10527;52.124;5.196;2023-09-19T12:01:54;19.30;99.90
20732;DHT22;10527;52.124;5.196;2023-09-19T12:07:12;19.10;99.90
20732;DHT22;10527;52.124;5.196;2023-09-19T12:10:03;19.10;99.90
20732;DHT22;10527;52.124;5.196;2023-09-19T12:12:31;19.10;99.90
20732;DHT22;10527;52.124;5.196;2023-09-19T12:15:00;19.00;99.90
20732;DHT22;10527;52.124;5.196;2023-09-19T12:17:37;18.90;99.90
20732;DHT22;10527;52.124;5.196;2023-09-19T12:20:06;18.90;99.90
20732;DHT22;10527;52.124;5.196;2023-09-19T12:22:44;18.90;99.90
20732;DHT22;10527;52.124;5.196;2023-09-19T12:25:14;18.80;99.90
20732;DHT22;10527;52.124;5.196;2023-09-19T12:27:50;18.80;99.90
20732;DHT22;10527;52.124;5.196;2023-09-19T12:30:27;18.80;99.90
20732;DHT22;10527;52.124;5.196;2023-09-19T12:32:55;18.80;99.90
20732;DHT22;10527;52.124;5.196;2023-09-19T12:35:32;18.80;99.90
20732;DHT22;10527;52.124;5.196;2023-09-19T12:38:03;18.80;99.90
20732;DHT22;10527;52.124;5.196;2023-09-19T12:40:31;18.80;99.90
20732;DHT22;10527;52.124;5.196;2023-09-19T12:43:01;18.70;99.90
20732;DHT22;10527;52.124;5.196;2023-09-19T12:45:32;18.80;99.90
20732;DHT22;10527;52.124;5.196;2023-09-19T12:48:25;18.90;99.90
20732;DHT22;10527;52.124;5.196;2023-09-19T12:51:08;19.00;99.90
20732;DHT22;10527;52.124;5.196;2023-09-19T12:53:44;19.10;99.90
20732;DHT22;10527;52.124;5.196;2023-09-19T12:56:15;19.20;99.90
20732;DHT22;10527;52.124;5.196;2023-09-19T12:59:09;19.00;99.90
20732;DHT22;10527;52.124;5.196;2023-09-19T13:01:39;18.90;99.90
20732;DHT22;10527;52.124;5.196;2023-09-19T13:04:21;18.90;99.90
20732;DHT22;10527;52.124;5.196;2023-09-19T13:06:56;18.70;99.90
20732;DHT22;10527;52.124;5.196;2023-09-19T13:09:28;18.60;99.90
20732;DHT22;10527;52.124;5.196;2023-09-19T13:12:01;18.60;99.90
20732;DHT22;10527;52.124;5.196;2023-09-19T13:14:29;18.60;99.90
20732;DHT22;10527;52.124;5.196;2023-09-19T13:19:50;18.60;99.90
20732;DHT22;10527;52.124;5.196;2023-09-19T13:25:09;18.70;99.90
20732;DHT22;10527;52.124;5.196;2023-09-19T13:27:48;18.70;99.90
20732;DHT22;10527;52.124;5.196;2023-09-19T13:30:21;18.70;99.90
20732;DHT22;10527;52.124;5.196;2023-09-19T13:32:52;18.80;99.90
20732;DHT22;10527;52.124;5.196;2023-09-19T13:35:31;18.90;99.90
20732;DHT22;10527;52.124;5.196;2023-09-19T13:37:59;18.80;99.90
20732;DHT22;10527;52.124;5.196;2023-09-19T13:40:27;18.80;99.90
20732;DHT22;10527;52.124;5.196;2023-09-19T13:42:57;18.90;99.90
20732;DHT22;10527;52.124;5.196;2023-09-19T13:45:24;18.90;99.90
20732;DHT22;10527;52.124;5.196;2023-09-19T13:47:57;18.90;99.90
20732;DHT22;10527;52.124;5.196;2023-09-19T13:50:29;18.80;99.90
20732;DHT22;10527;52.124;5.196;2023-09-19T13:52:58;18.70;99.90
20732;DHT22;10527;52.124;5.196;2023-09-19T13:55:27;18.80;99.90
20732;DHT22;10527;52.124;5.196;2023-09-19T13:57:54;18.90;99.90
20732;DHT22;10527;52.124;5.196;2023-09-19T14:00:23;18.90;99.90
20732;DHT22;10527;52.124;5.196;2023-09-19T14:02:50;18.90;99.90
20732;DHT22;10527;52.124;5.196;2023-09-19T14:05:18;18.90;99.90
20732;DHT22;10527;52.124;5.196;2023-09-19T14:07:47;18.90;99.90
20732;DHT22;10527;52.124;5.196;2023-09-19T14:10:14;18.90;99.90
20732;DHT22;10527;52.124;5.196;2023-09-19T14:12:44;19.00;99.90
20732;DHT22;10527;52.124;5.196;2023-09-19T14:15:12;19.00;99.90
20732;DHT22;10527;52.124;5.196;2023-09-19T14:17:40;18.90;99.90
20732;DHT22;10527;52.124;5.196;2023-09-19T14:20:12;19.00;99.90
20732;DHT22;10527;52.124;5.196;2023-09-19T14:22:39;18.90;99.90
20732;DHT22;10527;52.124;5.196;2023-09-19T14:25:07;18.90;99.90
20732;DHT22;10527;52.124;5.196;2023-09-19T14:27:35;18.90;99.90
20732;DHT22;10527;52.124;5.196;2023-09-19T14:30:03;18.90;99.90
20732;DHT22;10527;52.124;5.196;2023-09-19T14:32:30;18.90;99.90
20732;DHT22;10527;52.124;5.196;2023-09-19T14:34:57;18.90;99.90
20732;DHT22;10527;52.124;5.196;2023-09-19T14:37:25;19.00;99.90
20732;DHT22;10527;52.124;5.196;2023-09-19T14:39:54;18.90;99.90
20732;DHT22;10527;52.124;5.196;2023-09-19T14:42:22;18.90;99.90
20732;DHT22;10527;52.124;5.196;2023-09-19T14:44:49;18.90;99.90
20732;DHT22;10527;52.124;5.196;2023-09-19T14:47:16;18.80;99.90
20732;DHT22;10527;52.124;5.196;2023-09-19T14:49:43;18.80;99.90
20732;DHT22;10527;52.124;5.196;2023-09-19T14:52:11;18.80;99.90
20732;DHT22;10527;52.124;5.196;2023-09-19T14:54:42;18.70;99.90
20732;DHT22;10527;52.124;5.196;2023-09-19T14:57:08;18.70;99.90
20732;DHT22;10527;52.124;5.196;2023-09-19T14:59:38;18.70;99.90
20732;DHT22;10527;52.124;5.196;2023-09-19T15:02:06;18.60;99.90
20732;DHT22;10527;52.124;5.196;2023-09-19T15:04:34;18.50;99.90
20732;DHT22;10527;52.124;5.196;2023-09-19T15:07:01;18.70;99.90
20732;DHT22;10527;52.124;5.196;2023-09-19T15:09:29;18.70;99.90
20732;DHT22;10527;52.124;5.196;2023-09-19T15:11:58;18.70;99.90
20732;DHT22;10527;52.124;5.196;2023-09-19T15:14:26;18.70;99.90
20732;DHT22;10527;52.124;5.196;2023-09-19T15:16:52;18.70;99.90
20732;DHT22;10527;52.124;5.196;2023-09-19T15:19:19;18.80;99.90
20732;DHT22;10527;52.124;5.196;2023-09-19T15:21:50;18.80;99.90
20732;DHT22;10527;52.124;5.196;2023-09-19T15:24:16;18.70;99.90
20732;DHT22;10527;52.124;5.196;2023-09-19T15:26:44;18.70;99.90
20732;DHT22;10527;52.124;5.196;2023-09-19T15:29:12;18.80;99.90
20732;DHT22;10527;52.124;5.196;2023-09-19T15:31:40;18.70;99.90
20732;DHT22;10527;52.124;5.196;2023-09-19T15:34:07;18.60;99.90
20732;DHT22;10527;52.124;5.196;2023-09-19T15:36:34;18.60;99.90
20732;DHT22;10527;52.124;5.196;2023-09-19T15:39:04;18.60;99.90
20732;DHT22;10527;52.124;5.196;2023-09-19T15:41:40;18.60;99.90
20732;DHT22;10527;52.124;5.196;2023-09-19T15:44:16;18.60;99.90
20732;DHT22;10527;52.124;5.196;2023-09-19T15:46:44;18.50;99.90
20732;DHT22;10527;52.124;5.196;2023-09-19T15:49:12;18.40;99.90
20732;DHT22;10527;52.124;5.196;2023-09-19T15:51:42;18.30;99.90
20732;DHT22;10527;52.124;5.196;2023-09-19T15:54:15;18.40;99.90
20732;DHT22;10527;52.124;5.196;2023-09-19T15:56:45;18.30;99.90
20732;DHT22;10527;52.124;5.196;2023-09-19T15:59:13;18.30;99.90
20732;DHT22;10527;52.124;5.196;2023-09-19T16:01:44;18.30;99.90
20732;DHT22;10527;52.124;5.196;2023-09-19T16:04:11;18.40;99.90
20732;DHT22;10527;52.124;5.196;2023-09-19T16:06:39;18.40;99.90
20732;DHT22;10527;52.124;5.196;2023-09-19T16:09:08;18.50;99.90
20732;DHT22;10527;52.124;5.196;2023-09-19T16:11:38;18.50;99.90
20732;DHT22;10527;52.124;5.196;2023-09-19T16:14:05;18.50;99.90
20732;DHT22;10527;52.124;5.196;2023-09-19T16:16:37;18.60;99.90
20732;DHT22;10527;52.124;5.196;2023-09-19T16:19:05;18.60;99.90
20732;DHT22;10527;52.124;5.196;2023-09-19T16:21:37;18.60;99.90
20732;DHT22;10527;52.124;5.196;2023-09-19T16:24:09;18.60;99.90
20732;DHT22;10527;52.124;5.196;2023-09-19T16:26:37;18.60;99.90
20732;DHT22;10527;52.124;5.196;2023-09-19T16:29:05;18.60;99.90
20732;DHT22;10527;52.124;5.196;2023-09-19T16:31:33;18.50;99.90
20732;DHT22;10527;52.124;5.196;2023-09-19T16:34:02;18.40;99.90
20732;DHT22;10527;52.124;5.196;2023-09-19T16:36:30;18.30;99.90
20732;DHT22;10527;52.124;5.196;2023-09-19T16:39:00;18.00;99.90
20732;DHT22;10527;52.124;5.196;2023-09-19T16:41:27;17.70;99.90